CDT,Max TemperatureF,Mean TemperatureF,Min TemperatureF,Max Dew PointF,MeanDew PointF,Min DewpointF,Max Humidity, Mean Humidity, Min Humidity, Max Sea Level PressureIn, Mean Sea Level PressureIn, Min Sea Level PressureIn, Max VisibilityMiles, Mean VisibilityMiles, Min VisibilityMiles, Max Wind SpeedMPH, Mean Wind SpeedMPH, Max Gust SpeedMPH,PrecipitationIn, CloudCover, Events, WindDirDegrees
2013-10-1,87,73,59,57,53,48,72,53,27,29.93,29.87,29.83,10,10,10,20,12,25,0.00,1,,151
2013-10-2,84,73,62,64,60,55,94,67,42,29.95,29.90,29.83,10,10,5,23,13,31,0.00,3,,157
2013-10-3,87,78,68,66,62,57,88,63,37,29.86,29.80,29.71,10,10,10,26,16,33,0.00,2,,168
2013-10-4,87,74,60,63,59,37,83,58,40,30.00,29.81,29.71,10,10,10,28,19,46,0.22,2,Rain-Thunderstorm,177
2013-10-5,68,58,48,37,30,21,58,39,17,30.19,30.11,30.01,10,10,10,23,16,32,0.00,5,,336
2013-10-6,71,56,41,37,29,23,71,40,16,30.19,30.13,30.07,10,10,10,23,8,30,0.00,1,,319
2013-10-7,75,58,42,45,36,27,87,49,20,30.22,30.15,30.10,10,10,10,10,3,,0.00,1,,144
2013-10-8,80,63,46,41,37,34,76,42,18,30.11,30.04,29.95,10,10,10,20,10,25,0.00,2,,156
2013-10-9,80,66,51,46,43,37,82,48,23,30.03,29.98,29.93,10,10,10,21,13,29,0.00,2,,159
2013-10-10,80,68,55,55,51,46,82,56,34,30.00,29.92,29.80,10,10,10,25,15,32,0.00,2,,156
2013-10-11,82,72,57,57,38,10,82,40,7,29.89,29.82,29.77,10,10,10,22,14,31,0.00,1,,189
2013-10-12,71,61,51,43,37,34,67,42,27,30.20,30.08,29.89,10,10,4,28,13,33,0.00,1,,40
2013-10-13,71,60,50,63,51,43,94,70,53,30.30,30.21,30.17,10,10,4,14,8,17,0.15,6,Rain-Thunderstorm,81
2013-10-14,71,68,64,64,63,59,94,88,78,30.17,29.99,29.86,10,7,2,17,10,23,0.21,7,Rain,156
2013-10-15,66,55,44,63,40,34,88,61,36,30.18,30.09,29.90,10,10,10,23,13,31,0.00,3,Rain,357
2013-10-16,50,44,37,39,35,32,93,69,50,30.21,30.16,30.10,10,10,5,12,8,,0.03,5,Rain,355
2013-10-17,68,52,35,43,37,34,93,66,28,30.10,30.05,29.98,10,10,4,8,4,,0.00,1,,161
2013-10-18,55,44,33,43,38,32,93,80,54,30.23,30.08,29.99,10,9,2,25,11,31,0.13,7,Rain-Thunderstorm,32
2013-10-19,68,50,32,37,32,27,100,68,21,30.23,30.13,30.01,10,10,10,16,6,23,0.00,0,,245
2013-10-20,69,55,41,46,39,34,82,61,35,30.03,29.91,29.80,10,10,10,18,10,25,0.00,0,,156
2013-10-21,60,52,44,45,36,28,82,55,31,30.16,30.08,29.92,10,10,3,25,12,31,0.00,1,Thunderstorm,27
2013-10-22,77,59,41,37,34,25,76,49,14,30.15,30.11,30.05,10,10,7,17,4,25,0.00,0,,309
2013-10-23,82,60,39,45,37,25,87,53,12,30.14,30.08,29.96,10,10,2,18,6,24,0.00,1,,115
2013-10-24,59,50,41,43,35,32,87,60,36,30.39,30.28,30.12,10,10,3,28,10,33,0.00,1,,41
2013-10-25,62,48,35,43,36,28,87,63,42,30.44,30.34,30.20,10,9,2,15,9,20,0.00,3,,128
2013-10-26,66,56,46,55,47,36,94,74,51,30.21,30.15,30.10,10,10,7,22,9,26,0.00,5,Rain-Thunderstorm,160
2013-10-27,68,50,32,45,31,18,93,58,15,30.21,30.09,29.97,10,10,10,12,5,17,0.00,1,,215
2013-10-28,64,57,50,61,55,45,100,92,76,30.06,30.00,29.96,10,4,0,20,12,25,0.00,7,Fog-Rain,150
2013-10-29,75,70,64,64,62,61,88,77,65,30.01,29.95,29.90,10,10,10,22,15,30,0.00,5,,165
2013-10-30,77,72,68,64,62,50,88,76,49,29.95,29.84,29.69,10,10,10,21,14,29,0.00,6,,175
2013-10-31,68,57,46,64,40,27,88,53,21,29.85,29.75,29.62,10,10,7,26,13,39,0.05,2,Rain-Thunderstorm,274